sensor_id;sensor_type;location;lat;lon;timestamp;P1;durP1;ratioP1;P2;durP2;ratioP2
21636;SDS011;10980;49.596;6.142;2023-09-18T00:03:04;16.58;;;4.22;;
21636;SDS011;10980;49.596;6.142;2023-09-18T00:06:26;13.25;;;4.88;;
21636;SDS011;10980;49.596;6.142;2023-09-18T00:09:48;12.20;;;3.83;;
21636;SDS011;10980;49.596;6.142;2023-09-18T00:13:10;7.50;;;3.83;;
21636;SDS011;10980;49.596;6.142;2023-09-18T00:16:32;11.82;;;4.97;;
21636;SDS011;10980;49.596;6.142;2023-09-18T00:20:12;19.38;;;4.45;;
21636;SDS011;10980;49.596;6.142;2023-09-18T00:23:37;13.20;;;4.85;;
21636;SDS011;10980;49.596;6.142;2023-09-18T00:26:59;14.38;;;5.53;;
21636;SDS011;10980;49.596;6.142;2023-09-18T00:30:21;12.32;;;5.07;;
21636;SDS011;10980;49.596;6.142;2023-09-18T00:33:44;25.83;;;4.60;;
21636;SDS011;10980;49.596;6.142;2023-09-18T00:37:10;11.35;;;3.90;;
21636;SDS011;10980;49.596;6.142;2023-09-18T00:40:34;13.52;;;3.58;;
21636;SDS011;10980;49.596;6.142;2023-09-18T00:44:02;17.08;;;3.53;;
21636;SDS011;10980;49.596;6.142;2023-09-18T00:47:24;8.25;;;3.13;;
21636;SDS011;10980;49.596;6.142;2023-09-18T00:50:49;15.43;;;3.15;;
21636;SDS011;10980;49.596;6.142;2023-09-18T00:54:11;5.88;;;2.63;;
21636;SDS011;10980;49.596;6.142;2023-09-18T00:57:37;12.07;;;2.97;;
21636;SDS011;10980;49.596;6.142;2023-09-18T01:00:59;7.72;;;2.92;;
21636;SDS011;10980;49.596;6.142;2023-09-18T01:04:22;7.30;;;2.80;;
21636;SDS011;10980;49.596;6.142;2023-09-18T01:07:50;9.88;;;3.65;;
21636;SDS011;10980;49.596;6.142;2023-09-18T01:15:30;13.00;;;3.47;;
21636;SDS011;10980;49.596;6.142;2023-09-18T01:19:04;11.15;;;3.72;;
21636;SDS011;10980;49.596;6.142;2023-09-18T01:22:28;8.73;;;3.58;;
21636;SDS011;10980;49.596;6.142;2023-09-18T01:25:52;9.15;;;3.35;;
21636;SDS011;10980;49.596;6.142;2023-09-18T01:29:14;9.75;;;3.47;;
21636;SDS011;10980;49.596;6.142;2023-09-18T01:32:36;10.77;;;3.25;;
21636;SDS011;10980;49.596;6.142;2023-09-18T01:36:02;10.85;;;3.60;;
21636;SDS011;10980;49.596;6.142;2023-09-18T01:39:27;8.15;;;3.15;;
21636;SDS011;10980;49.596;6.142;2023-09-18T01:43:16;7.80;;;3.42;;
21636;SDS011;10980;49.596;6.142;2023-09-18T01:46:43;14.02;;;3.40;;
21636;SDS011;10980;49.596;6.142;2023-09-18T01:50:06;8.75;;;3.45;;
21636;SDS011;10980;49.596;6.142;2023-09-18T01:53:28;9.35;;;2.88;;
21636;SDS011;10980;49.596;6.142;2023-09-18T01:56:55;8.20;;;3.08;;
21636;SDS011;10980;49.596;6.142;2023-09-18T02:00:17;14.63;;;3.72;;
21636;SDS011;10980;49.596;6.142;2023-09-18T02:03:40;12.25;;;3.65;;
21636;SDS011;10980;49.596;6.142;2023-09-18T02:07:25;10.00;;;2.97;;
21636;SDS011;10980;49.596;6.142;2023-09-18T02:10:48;11.13;;;3.95;;
21636;SDS011;10980;49.596;6.142;2023-09-18T02:14:16;6.30;;;2.50;;
21636;SDS011;10980;49.596;6.142;2023-09-18T02:17:38;7.15;;;2.78;;
21636;SDS011;10980;49.596;6.142;2023-09-18T02:21:01;8.25;;;2.97;;
21636;SDS011;10980;49.596;6.142;2023-09-18T02:24:24;17.45;;;3.40;;
21636;SDS011;10980;49.596;6.142;2023-09-18T02:27:48;7.63;;;2.90;;
21636;SDS011;10980;49.596;6.142;2023-09-18T02:31:12;8.30;;;3.10;;
21636;SDS011;10980;49.596;6.142;2023-09-18T02:34:35;10.48;;;3.13;;
21636;SDS011;10980;49.596;6.142;2023-09-18T02:37:57;9.75;;;2.83;;
21636;SDS011;10980;49.596;6.142;2023-09-18T02:41:21;7.70;;;3.17;;
21636;SDS011;10980;49.596;6.142;2023-09-18T02:44:43;9.25;;;2.60;;
21636;SDS011;10980;49.596;6.142;2023-09-18T02:48:04;6.72;;;3.20;;
21636;SDS011;10980;49.596;6.142;2023-09-18T02:51:27;9.02;;;3.45;;
21636;SDS011;10980;49.596;6.142;2023-09-18T02:54:49;12.25;;;2.65;;
21636;SDS011;10980;49.596;6.142;2023-09-18T02:58:11;9.35;;;3.38;;
21636;SDS011;10980;49.596;6.142;2023-09-18T03:01:33;9.68;;;3.00;;
21636;SDS011;10980;49.596;6.142;2023-09-18T03:04:55;11.68;;;3.20;;
21636;SDS011;10980;49.596;6.142;2023-09-18T03:08:18;13.50;;;3.10;;
21636;SDS011;10980;49.596;6.142;2023-09-18T03:11:40;13.07;;;3.55;;
21636;SDS011;10980;49.596;6.142;2023-09-18T03:15:03;14.93;;;3.40;;
21636;SDS011;10980;49.596;6.142;2023-09-18T03:18:28;13.73;;;3.30;;
21636;SDS011;10980;49.596;6.142;2023-09-18T03:21:50;8.07;;;3.13;;
21636;SDS011;10980;49.596;6.142;2023-09-18T03:25:12;11.90;;;3.53;;
21636;SDS011;10980;49.596;6.142;2023-09-18T03:28:34;7.63;;;3.13;;
21636;SDS011;10980;49.596;6.142;2023-09-18T03:31:56;9.50;;;3.10;;
21636;SDS011;10980;49.596;6.142;2023-09-18T03:35:20;10.35;;;3.40;;
21636;SDS011;10980;49.596;6.142;2023-09-18T03:38:42;7.80;;;3.00;;
21636;SDS011;10980;49.596;6.142;2023-09-18T03:42:04;6.65;;;2.58;;
21636;SDS011;10980;49.596;6.142;2023-09-18T03:45:26;6.75;;;2.85;;
21636;SDS011;10980;49.596;6.142;2023-09-18T03:48:48;9.50;;;3.00;;
21636;SDS011;10980;49.596;6.142;2023-09-18T03:52:11;13.93;;;4.15;;
21636;SDS011;10980;49.596;6.142;2023-09-18T03:55:33;7.80;;;3.15;;
21636;SDS011;10980;49.596;6.142;2023-09-18T03:58:55;10.68;;;3.65;;
21636;SDS011;10980;49.596;6.142;2023-09-18T04:02:21;8.45;;;3.63;;
21636;SDS011;10980;49.596;6.142;2023-09-18T04:05:47;8.30;;;2.95;;
21636;SDS011;10980;49.596;6.142;2023-09-18T04:09:09;8.45;;;2.90;;
21636;SDS011;10980;49.596;6.142;2023-09-18T04:12:31;5.78;;;2.55;;
21636;SDS011;10980;49.596;6.142;2023-09-18T04:15:53;12.70;;;3.22;;
21636;SDS011;10980;49.596;6.142;2023-09-18T04:19:18;12.88;;;3.00;;
21636;SDS011;10980;49.596;6.142;2023-09-18T04:22:42;9.20;;;3.05;;
21636;SDS011;10980;49.596;6.142;2023-09-18T04:26:12;7.20;;;3.28;;
21636;SDS011;10980;49.596;6.142;2023-09-18T04:29:37;12.57;;;2.97;;
21636;SDS011;10980;49.596;6.142;2023-09-18T04:33:00;6.30;;;2.40;;
21636;SDS011;10980;49.596;6.142;2023-09-18T04:36:23;6.78;;;2.17;;
21636;SDS011;10980;49.596;6.142;2023-09-18T04:39:46;6.95;;;2.10;;
21636;SDS011;10980;49.596;6.142;2023-09-18T04:43:08;6.15;;;2.40;;
21636;SDS011;10980;49.596;6.142;2023-09-18T04:46:30;7.65;;;1.83;;
21636;SDS011;10980;49.596;6.142;2023-09-18T04:49:52;10.82;;;2.40;;
21636;SDS011;10980;49.596;6.142;2023-09-18T04:53:14;4.47;;;2.13;;
21636;SDS011;10980;49.596;6.142;2023-09-18T04:56:36;6.57;;;2.20;;
21636;SDS011;10980;49.596;6.142;2023-09-18T04:59:58;5.70;;;2.05;;
21636;SDS011;10980;49.596;6.142;2023-09-18T05:03:37;6.53;;;2.03;;
21636;SDS011;10980;49.596;6.142;2023-09-18T05:07:04;5.80;;;2.45;;
21636;SDS011;10980;49.596;6.142;2023-09-18T05:10:26;5.57;;;2.17;;
21636;SDS011;10980;49.596;6.142;2023-09-18T05:13:48;6.95;;;2.13;;
21636;SDS011;10980;49.596;6.142;2023-09-18T05:17:13;4.82;;;1.85;;
21636;SDS011;10980;49.596;6.142;2023-09-18T05:20:37;5.10;;;2.10;;
21636;SDS011;10980;49.596;6.142;2023-09-18T05:23:59;6.13;;;1.73;;
21636;SDS011;10980;49.596;6.142;2023-09-18T05:27:21;6.85;;;2.17;;
21636;SDS011;10980;49.596;6.142;2023-09-18T05:30:47;6.32;;;1.70;;
21636;SDS011;10980;49.596;6.142;2023-09-18T05:34:09;3.30;;;1.67;;
21636;SDS011;10980;49.596;6.142;2023-09-18T05:37:31;3.47;;;1.55;;
21636;SDS011;10980;49.596;6.142;2023-09-18T05:40:54;9.90;;;1.85;;
21636;SDS011;10980;49.596;6.142;2023-09-18T05:44:15;6.38;;;2.75;;
21636;SDS011;10980;49.596;6.142;2023-09-18T05:47:38;7.85;;;3.28;;
21636;SDS011;10980;49.596;6.142;2023-09-18T05:51:00;3.92;;;1.83;;
21636;SDS011;10980;49.596;6.142;2023-09-18T05:54:22;5.65;;;1.90;;
21636;SDS011;10980;49.596;6.142;2023-09-18T05:57:44;7.20;;;1.83;;
21636;SDS011;10980;49.596;6.142;2023-09-18T06:01:06;3.15;;;1.52;;
21636;SDS011;10980;49.596;6.142;2023-09-18T06:04:29;3.13;;;1.33;;
21636;SDS011;10980;49.596;6.142;2023-09-18T06:07:51;3.67;;;1.70;;
21636;SDS011;10980;49.596;6.142;2023-09-18T06:11:14;6.05;;;2.10;;
21636;SDS011;10980;49.596;6.142;2023-09-18T06:14:36;3.42;;;1.83;;
21636;SDS011;10980;49.596;6.142;2023-09-18T06:17:59;6.68;;;1.70;;
21636;SDS011;10980;49.596;6.142;2023-09-18T06:21:21;3.53;;;1.48;;
21636;SDS011;10980;49.596;6.142;2023-09-18T06:24:43;4.90;;;1.50;;
21636;SDS011;10980;49.596;6.142;2023-09-18T06:28:06;6.30;;;1.63;;
21636;SDS011;10980;49.596;6.142;2023-09-18T06:31:28;6.70;;;1.65;;
21636;SDS011;10980;49.596;6.142;2023-09-18T06:34:52;6.18;;;1.38;;
21636;SDS011;10980;49.596;6.142;2023-09-18T06:38:14;3.78;;;1.75;;
21636;SDS011;10980;49.596;6.142;2023-09-18T06:41:36;2.83;;;1.65;;
21636;SDS011;10980;49.596;6.142;2023-09-18T06:44:58;3.28;;;1.40;;
21636;SDS011;10980;49.596;6.142;2023-09-18T06:48:22;4.15;;;1.50;;
21636;SDS011;10980;49.596;6.142;2023-09-18T06:51:45;6.32;;;1.90;;
21636;SDS011;10980;49.596;6.142;2023-09-18T06:55:07;3.70;;;1.85;;
21636;SDS011;10980;49.596;6.142;2023-09-18T06:58:30;4.28;;;2.33;;
21636;SDS011;10980;49.596;6.142;2023-09-18T07:01:52;4.57;;;1.90;;
21636;SDS011;10980;49.596;6.142;2023-09-18T07:05:14;3.33;;;2.28;;
21636;SDS011;10980;49.596;6.142;2023-09-18T07:08:36;4.40;;;2.60;;
21636;SDS011;10980;49.596;6.142;2023-09-18T07:11:58;4.82;;;2.10;;
21636;SDS011;10980;49.596;6.142;2023-09-18T07:15:20;4.45;;;2.25;;
21636;SDS011;10980;49.596;6.142;2023-09-18T07:18:42;2.83;;;1.92;;
21636;SDS011;10980;49.596;6.142;2023-09-18T07:22:04;4.45;;;1.67;;
21636;SDS011;10980;49.596;6.142;2023-09-18T07:25:26;3.97;;;1.95;;
21636;SDS011;10980;49.596;6.142;2023-09-18T07:28:48;2.80;;;1.67;;
21636;SDS011;10980;49.596;6.142;2023-09-18T07:32:11;4.28;;;1.83;;
21636;SDS011;10980;49.596;6.142;2023-09-18T07:35:37;1.75;;;1.30;;
21636;SDS011;10980;49.596;6.142;2023-09-18T07:38:59;7.80;;;1.83;;
21636;SDS011;10980;49.596;6.142;2023-09-18T07:42:24;4.88;;;1.73;;
21636;SDS011;10980;49.596;6.142;2023-09-18T07:45:48;3.25;;;1.58;;
21636;SDS011;10980;49.596;6.142;2023-09-18T07:49:11;3.05;;;1.40;;
21636;SDS011;10980;49.596;6.142;2023-09-18T07:52:33;1.92;;;1.23;;
21636;SDS011;10980;49.596;6.142;2023-09-18T07:55:56;3.28;;;1.38;;
21636;SDS011;10980;49.596;6.142;2023-09-18T07:59:20;7.25;;;1.85;;
21636;SDS011;10980;49.596;6.142;2023-09-18T08:02:41;2.47;;;1.40;;
21636;SDS011;10980;49.596;6.142;2023-09-18T08:06:04;2.58;;;1.40;;
21636;SDS011;10980;49.596;6.142;2023-09-18T08:09:26;2.05;;;1.25;;
21636;SDS011;10980;49.596;6.142;2023-09-18T08:12:51;1.55;;;1.08;;
21636;SDS011;10980;49.596;6.142;2023-09-18T08:16:13;2.50;;;1.25;;
21636;SDS011;10980;49.596;6.142;2023-09-18T08:19:35;2.70;;;1.23;;
21636;SDS011;10980;49.596;6.142;2023-09-18T08:22:58;3.72;;;1.20;;
21636;SDS011;10980;49.596;6.142;2023-09-18T08:26:24;6.00;;;1.35;;
21636;SDS011;10980;49.596;6.142;2023-09-18T08:29:49;2.35;;;1.30;;
21636;SDS011;10980;49.596;6.142;2023-09-18T08:33:11;3.20;;;1.30;;
21636;SDS011;10980;49.596;6.142;2023-09-18T08:36:34;5.78;;;1.10;;
21636;SDS011;10980;49.596;6.142;2023-09-18T08:39:56;2.92;;;1.10;;
21636;SDS011;10980;49.596;6.142;2023-09-18T08:43:17;1.77;;;1.15;;
21636;SDS011;10980;49.596;6.142;2023-09-18T08:46:40;5.80;;;1.35;;
21636;SDS011;10980;49.596;6.142;2023-09-18T08:50:04;1.77;;;1.10;;
21636;SDS011;10980;49.596;6.142;2023-09-18T08:53:30;3.30;;;1.17;;
21636;SDS011;10980;49.596;6.142;2023-09-18T08:56:54;2.95;;;1.02;;
21636;SDS011;10980;49.596;6.142;2023-09-18T09:00:16;3.78;;;1.20;;
21636;SDS011;10980;49.596;6.142;2023-09-18T09:03:39;4.78;;;1.67;;
21636;SDS011;10980;49.596;6.142;2023-09-18T09:07:02;3.50;;;1.10;;
21636;SDS011;10980;49.596;6.142;2023-09-18T09:10:24;1.90;;;0.85;;
21636;SDS011;10980;49.596;6.142;2023-09-18T09:13:47;5.68;;;1.38;;
21636;SDS011;10980;49.596;6.142;2023-09-18T09:17:09;4.20;;;1.02;;
21636;SDS011;10980;49.596;6.142;2023-09-18T09:20:32;5.00;;;1.30;;
21636;SDS011;10980;49.596;6.142;2023-09-18T09:23:55;2.22;;;1.00;;
21636;SDS011;10980;49.596;6.142;2023-09-18T09:27:17;7.75;;;1.42;;
21636;SDS011;10980;49.596;6.142;2023-09-18T09:30:39;2.40;;;1.10;;
21636;SDS011;10980;49.596;6.142;2023-09-18T09:34:01;3.13;;;0.90;;
21636;SDS011;10980;49.596;6.142;2023-09-18T09:37:29;3.17;;;1.20;;
21636;SDS011;10980;49.596;6.142;2023-09-18T09:40:52;3.22;;;0.98;;
21636;SDS011;10980;49.596;6.142;2023-09-18T09:44:14;2.80;;;1.02;;
21636;SDS011;10980;49.596;6.142;2023-09-18T09:47:37;1.90;;;0.88;;
21636;SDS011;10980;49.596;6.142;2023-09-18T09:51:00;5.15;;;1.33;;
21636;SDS011;10980;49.596;6.142;2023-09-18T09:54:32;2.15;;;0.98;;
21636;SDS011;10980;49.596;6.142;2023-09-18T09:58:02;1.73;;;0.80;;
21636;SDS011;10980;49.596;6.142;2023-09-18T10:01:26;4.25;;;0.90;;
21636;SDS011;10980;49.596;6.142;2023-09-18T10:04:51;3.67;;;0.85;;
21636;SDS011;10980;49.596;6.142;2023-09-18T10:08:18;1.92;;;1.10;;
21636;SDS011;10980;49.596;6.142;2023-09-18T10:11:45;5.25;;;0.90;;
21636;SDS011;10980;49.596;6.142;2023-09-18T10:15:13;3.63;;;0.93;;
21636;SDS011;10980;49.596;6.142;2023-09-18T10:22:40;2.00;;;0.80;;
21636;SDS011;10980;49.596;6.142;2023-09-18T10:26:08;1.58;;;0.85;;
21636;SDS011;10980;49.596;6.142;2023-09-18T10:29:34;3.78;;;0.70;;
21636;SDS011;10980;49.596;6.142;2023-09-18T10:32:58;3.10;;;1.00;;
21636;SDS011;10980;49.596;6.142;2023-09-18T10:36:21;4.93;;;1.40;;
21636;SDS011;10980;49.596;6.142;2023-09-18T10:39:43;2.97;;;1.08;;
21636;SDS011;10980;49.596;6.142;2023-09-18T10:43:10;3.05;;;0.80;;
21636;SDS011;10980;49.596;6.142;2023-09-18T10:46:36;1.88;;;1.23;;
21636;SDS011;10980;49.596;6.142;2023-09-18T10:49:59;3.47;;;1.27;;
21636;SDS011;10980;49.596;6.142;2023-09-18T10:53:22;14.00;;;2.83;;
21636;SDS011;10980;49.596;6.142;2023-09-18T10:56:47;23.98;;;7.40;;
21636;SDS011;10980;49.596;6.142;2023-09-18T11:00:10;44.20;;;14.05;;
21636;SDS011;10980;49.596;6.142;2023-09-18T11:03:37;102.60;;;28.55;;
21636;SDS011;10980;49.596;6.142;2023-09-18T11:07:03;108.60;;;28.80;;
21636;SDS011;10980;49.596;6.142;2023-09-18T11:10:26;123.25;;;35.20;;
21636;SDS011;10980;49.596;6.142;2023-09-18T11:13:52;122.28;;;35.03;;
21636;SDS011;10980;49.596;6.142;2023-09-18T11:17:30;124.47;;;35.55;;
21636;SDS011;10980;49.596;6.142;2023-09-18T11:21:15;121.72;;;39.53;;
21636;SDS011;10980;49.596;6.142;2023-09-18T11:24:39;110.93;;;32.83;;
21636;SDS011;10980;49.596;6.142;2023-09-18T11:28:01;89.88;;;23.60;;
21636;SDS011;10980;49.596;6.142;2023-09-18T11:35:07;91.60;;;26.95;;
21636;SDS011;10980;49.596;6.142;2023-09-18T11:38:33;70.55;;;18.13;;
21636;SDS011;10980;49.596;6.142;2023-09-18T11:42:06;55.08;;;18.50;;
21636;SDS011;10980;49.596;6.142;2023-09-18T11:45:33;54.63;;;16.88;;
21636;SDS011;10980;49.596;6.142;2023-09-18T11:48:55;47.55;;;13.48;;
21636;SDS011;10980;49.596;6.142;2023-09-18T11:52:18;40.85;;;11.73;;
21636;SDS011;10980;49.596;6.142;2023-09-18T11:55:42;45.13;;;13.77;;
21636;SDS011;10980;49.596;6.142;2023-09-18T11:59:04;27.65;;;8.60;;
21636;SDS011;10980;49.596;6.142;2023-09-18T12:02:31;26.40;;;8.63;;
21636;SDS011;10980;49.596;6.142;2023-09-18T12:06:01;39.42;;;11.55;;
21636;SDS011;10980;49.596;6.142;2023-09-18T12:09:27;23.58;;;7.40;;
21636;SDS011;10980;49.596;6.142;2023-09-18T12:12:49;16.95;;;5.97;;
21636;SDS011;10980;49.596;6.142;2023-09-18T12:16:11;19.17;;;5.75;;
21636;SDS011;10980;49.596;6.142;2023-09-18T12:19:33;15.77;;;5.38;;
21636;SDS011;10980;49.596;6.142;2023-09-18T12:22:56;15.40;;;4.50;;
21636;SDS011;10980;49.596;6.142;2023-09-18T12:26:18;15.88;;;3.97;;
21636;SDS011;10980;49.596;6.142;2023-09-18T12:29:42;8.07;;;3.20;;
21636;SDS011;10980;49.596;6.142;2023-09-18T12:33:04;10.25;;;2.80;;
21636;SDS011;10980;49.596;6.142;2023-09-18T12:36:27;10.18;;;3.15;;
21636;SDS011;10980;49.596;6.142;2023-09-18T12:39:49;6.07;;;2.53;;
21636;SDS011;10980;49.596;6.142;2023-09-18T12:43:13;8.02;;;2.15;;
21636;SDS011;10980;49.596;6.142;2023-09-18T12:46:36;4.60;;;2.08;;
21636;SDS011;10980;49.596;6.142;2023-09-18T12:50:02;6.50;;;1.90;;
21636;SDS011;10980;49.596;6.142;2023-09-18T12:53:25;6.95;;;1.90;;
21636;SDS011;10980;49.596;6.142;2023-09-18T12:56:47;4.43;;;2.33;;
21636;SDS011;10980;49.596;6.142;2023-09-18T13:00:09;4.82;;;1.73;;
21636;SDS011;10980;49.596;6.142;2023-09-18T13:03:34;5.18;;;1.48;;
21636;SDS011;10980;49.596;6.142;2023-09-18T13:07:08;4.00;;;1.48;;
21636;SDS011;10980;49.596;6.142;2023-09-18T13:10:43;4.70;;;1.52;;
21636;SDS011;10980;49.596;6.142;2023-09-18T13:14:13;3.45;;;1.40;;
21636;SDS011;10980;49.596;6.142;2023-09-18T13:17:36;3.60;;;1.17;;
21636;SDS011;10980;49.596;6.142;2023-09-18T13:21:00;4.57;;;1.23;;
21636;SDS011;10980;49.596;6.142;2023-09-18T13:24:31;4.18;;;0.90;;
21636;SDS011;10980;49.596;6.142;2023-09-18T13:27:53;6.30;;;1.13;;
21636;SDS011;10980;49.596;6.142;2023-09-18T13:31:16;3.45;;;1.00;;
21636;SDS011;10980;49.596;6.142;2023-09-18T13:34:39;4.53;;;1.45;;
21636;SDS011;10980;49.596;6.142;2023-09-18T13:38:01;2.65;;;1.33;;
21636;SDS011;10980;49.596;6.142;2023-09-18T13:41:26;2.40;;;0.82;;
21636;SDS011;10980;49.596;6.142;2023-09-18T13:44:49;3.58;;;1.10;;
21636;SDS011;10980;49.596;6.142;2023-09-18T13:48:11;3.33;;;1.23;;
21636;SDS011;10980;49.596;6.142;2023-09-18T13:51:33;2.35;;;1.00;;
21636;SDS011;10980;49.596;6.142;2023-09-18T13:54:55;4.32;;;1.13;;
21636;SDS011;10980;49.596;6.142;2023-09-18T13:58:17;3.60;;;1.95;;
21636;SDS011;10980;49.596;6.142;2023-09-18T14:01:39;5.28;;;1.65;;
21636;SDS011;10980;49.596;6.142;2023-09-18T14:05:01;3.28;;;1.08;;
21636;SDS011;10980;49.596;6.142;2023-09-18T14:08:24;2.53;;;1.13;;
21636;SDS011;10980;49.596;6.142;2023-09-18T14:11:46;1.58;;;1.05;;
21636;SDS011;10980;49.596;6.142;2023-09-18T14:15:09;4.53;;;1.40;;
21636;SDS011;10980;49.596;6.142;2023-09-18T14:18:31;4.70;;;1.20;;
21636;SDS011;10980;49.596;6.142;2023-09-18T14:21:54;1.80;;;0.85;;
21636;SDS011;10980;49.596;6.142;2023-09-18T14:25:16;5.18;;;1.00;;
21636;SDS011;10980;49.596;6.142;2023-09-18T14:28:41;3.15;;;1.65;;
21636;SDS011;10980;49.596;6.142;2023-09-18T14:32:06;2.38;;;1.20;;
21636;SDS011;10980;49.596;6.142;2023-09-18T14:35:29;1.55;;;0.98;;
21636;SDS011;10980;49.596;6.142;2023-09-18T14:38:51;2.53;;;1.20;;
21636;SDS011;10980;49.596;6.142;2023-09-18T14:42:13;1.88;;;1.10;;
21636;SDS011;10980;49.596;6.142;2023-09-18T14:45:35;3.63;;;1.05;;
21636;SDS011;10980;49.596;6.142;2023-09-18T14:48:59;2.08;;;0.88;;
21636;SDS011;10980;49.596;6.142;2023-09-18T14:52:22;4.50;;;1.20;;
21636;SDS011;10980;49.596;6.142;2023-09-18T14:55:46;4.78;;;0.93;;
21636;SDS011;10980;49.596;6.142;2023-09-18T14:59:10;2.92;;;0.95;;
21636;SDS011;10980;49.596;6.142;2023-09-18T15:02:31;2.53;;;1.30;;
21636;SDS011;10980;49.596;6.142;2023-09-18T15:05:56;3.58;;;1.00;;
21636;SDS011;10980;49.596;6.142;2023-09-18T15:09:18;2.97;;;1.30;;
21636;SDS011;10980;49.596;6.142;2023-09-18T15:12:40;2.78;;;1.05;;
21636;SDS011;10980;49.596;6.142;2023-09-18T15:16:03;2.78;;;1.52;;
21636;SDS011;10980;49.596;6.142;2023-09-18T15:19:27;2.42;;;1.10;;
21636;SDS011;10980;49.596;6.142;2023-09-18T15:22:49;1.95;;;0.82;;
21636;SDS011;10980;49.596;6.142;2023-09-18T15:26:11;1.65;;;1.02;;
21636;SDS011;10980;49.596;6.142;2023-09-18T15:29:33;1.90;;;0.95;;
21636;SDS011;10980;49.596;6.142;2023-09-18T15:32:56;2.28;;;0.95;;
21636;SDS011;10980;49.596;6.142;2023-09-18T15:36:18;3.42;;;1.23;;
21636;SDS011;10980;49.596;6.142;2023-09-18T15:39:40;2.30;;;1.02;;
21636;SDS011;10980;49.596;6.142;2023-09-18T15:43:03;2.40;;;1.15;;
21636;SDS011;10980;49.596;6.142;2023-09-18T15:46:26;4.60;;;0.95;;
21636;SDS011;10980;49.596;6.142;2023-09-18T15:49:48;2.42;;;1.20;;
21636;SDS011;10980;49.596;6.142;2023-09-18T15:53:10;3.75;;;0.93;;
21636;SDS011;10980;49.596;6.142;2023-09-18T15:56:31;5.45;;;1.58;;
21636;SDS011;10980;49.596;6.142;2023-09-18T15:59:55;3.40;;;1.35;;
21636;SDS011;10980;49.596;6.142;2023-09-18T16:03:17;3.05;;;1.60;;
21636;SDS011;10980;49.596;6.142;2023-09-18T16:06:39;2.30;;;1.33;;
21636;SDS011;10980;49.596;6.142;2023-09-18T16:10:01;4.07;;;1.08;;
21636;SDS011;10980;49.596;6.142;2023-09-18T16:13:25;2.33;;;1.10;;
21636;SDS011;10980;49.596;6.142;2023-09-18T16:16:49;2.80;;;1.20;;
21636;SDS011;10980;49.596;6.142;2023-09-18T16:20:12;1.73;;;1.10;;
21636;SDS011;10980;49.596;6.142;2023-09-18T16:23:34;6.85;;;1.40;;
21636;SDS011;10980;49.596;6.142;2023-09-18T16:26:57;5.40;;;1.95;;
21636;SDS011;10980;49.596;6.142;2023-09-18T16:30:19;4.88;;;1.33;;
21636;SDS011;10980;49.596;6.142;2023-09-18T16:33:41;3.90;;;1.45;;
21636;SDS011;10980;49.596;6.142;2023-09-18T16:37:04;2.42;;;1.10;;
21636;SDS011;10980;49.596;6.142;2023-09-18T16:40:26;2.13;;;1.30;;
21636;SDS011;10980;49.596;6.142;2023-09-18T16:43:53;3.05;;;1.50;;
21636;SDS011;10980;49.596;6.142;2023-09-18T16:47:15;2.70;;;1.35;;
21636;SDS011;10980;49.596;6.142;2023-09-18T16:50:37;4.45;;;1.00;;
21636;SDS011;10980;49.596;6.142;2023-09-18T16:53:58;2.88;;;1.08;;
21636;SDS011;10980;49.596;6.142;2023-09-18T16:57:21;3.47;;;1.40;;
21636;SDS011;10980;49.596;6.142;2023-09-18T17:00:43;2.72;;;1.10;;
21636;SDS011;10980;49.596;6.142;2023-09-18T17:04:05;2.17;;;1.10;;
21636;SDS011;10980;49.596;6.142;2023-09-18T17:07:28;2.53;;;1.20;;
21636;SDS011;10980;49.596;6.142;2023-09-18T17:10:52;4.30;;;1.27;;
21636;SDS011;10980;49.596;6.142;2023-09-18T17:14:14;2.30;;;1.17;;
21636;SDS011;10980;49.596;6.142;2023-09-18T17:17:37;3.15;;;1.27;;
21636;SDS011;10980;49.596;6.142;2023-09-18T17:21:00;2.75;;;1.20;;
21636;SDS011;10980;49.596;6.142;2023-09-18T17:24:22;2.85;;;1.40;;
21636;SDS011;10980;49.596;6.142;2023-09-18T17:27:44;5.22;;;1.67;;
21636;SDS011;10980;49.596;6.142;2023-09-18T17:31:05;4.50;;;1.38;;
21636;SDS011;10980;49.596;6.142;2023-09-18T17:34:27;2.78;;;1.50;;
21636;SDS011;10980;49.596;6.142;2023-09-18T17:37:50;6.18;;;2.08;;
21636;SDS011;10980;49.596;6.142;2023-09-18T17:41:12;6.63;;;2.47;;
21636;SDS011;10980;49.596;6.142;2023-09-18T17:44:34;7.72;;;3.63;;
21636;SDS011;10980;49.596;6.142;2023-09-18T17:47:56;9.00;;;4.20;;
21636;SDS011;10980;49.596;6.142;2023-09-18T17:51:19;10.60;;;3.83;;
21636;SDS011;10980;49.596;6.142;2023-09-18T17:54:40;15.43;;;4.72;;
21636;SDS011;10980;49.596;6.142;2023-09-18T17:58:02;13.30;;;5.00;;
21636;SDS011;10980;49.596;6.142;2023-09-18T18:01:24;11.82;;;4.50;;
21636;SDS011;10980;49.596;6.142;2023-09-18T18:04:46;16.48;;;5.18;;
21636;SDS011;10980;49.596;6.142;2023-09-18T18:08:09;11.52;;;4.53;;
21636;SDS011;10980;49.596;6.142;2023-09-18T18:11:32;13.02;;;4.70;;
21636;SDS011;10980;49.596;6.142;2023-09-18T18:14:56;11.57;;;4.35;;
21636;SDS011;10980;49.596;6.142;2023-09-18T18:18:17;15.88;;;4.53;;
21636;SDS011;10980;49.596;6.142;2023-09-18T18:21:40;9.38;;;4.03;;
21636;SDS011;10980;49.596;6.142;2023-09-18T18:25:02;8.20;;;3.50;;
21636;SDS011;10980;49.596;6.142;2023-09-18T18:28:24;10.30;;;4.40;;
21636;SDS011;10980;49.596;6.142;2023-09-18T18:31:46;8.30;;;3.38;;
21636;SDS011;10980;49.596;6.142;2023-09-18T18:35:11;11.05;;;3.40;;
21636;SDS011;10980;49.596;6.142;2023-09-18T18:38:33;6.18;;;2.72;;
21636;SDS011;10980;49.596;6.142;2023-09-18T18:41:57;5.47;;;2.03;;
21636;SDS011;10980;49.596;6.142;2023-09-18T18:45:19;5.88;;;2.60;;
21636;SDS011;10980;49.596;6.142;2023-09-18T18:48:44;4.45;;;1.90;;
21636;SDS011;10980;49.596;6.142;2023-09-18T18:52:07;6.30;;;2.70;;
21636;SDS011;10980;49.596;6.142;2023-09-18T18:55:29;7.07;;;2.67;;
21636;SDS011;10980;49.596;6.142;2023-09-18T18:58:50;5.47;;;2.33;;
21636;SDS011;10980;49.596;6.142;2023-09-18T19:02:13;4.70;;;2.20;;
21636;SDS011;10980;49.596;6.142;2023-09-18T19:05:35;7.70;;;2.22;;
21636;SDS011;10980;49.596;6.142;2023-09-18T19:08:59;6.05;;;2.38;;
21636;SDS011;10980;49.596;6.142;2023-09-18T19:12:21;5.03;;;1.63;;
21636;SDS011;10980;49.596;6.142;2023-09-18T19:15:43;2.85;;;1.40;;
21636;SDS011;10980;49.596;6.142;2023-09-18T19:19:04;6.03;;;2.40;;
21636;SDS011;10980;49.596;6.142;2023-09-18T19:22:26;4.30;;;2.33;;
21636;SDS011;10980;49.596;6.142;2023-09-18T19:25:52;4.65;;;2.20;;
21636;SDS011;10980;49.596;6.142;2023-09-18T19:29:16;4.47;;;1.88;;
21636;SDS011;10980;49.596;6.142;2023-09-18T19:32:39;5.15;;;1.58;;
21636;SDS011;10980;49.596;6.142;2023-09-18T19:36:01;4.38;;;1.95;;
21636;SDS011;10980;49.596;6.142;2023-09-18T19:39:24;4.40;;;1.65;;
21636;SDS011;10980;49.596;6.142;2023-09-18T19:42:46;3.35;;;1.60;;
21636;SDS011;10980;49.596;6.142;2023-09-18T19:46:08;5.65;;;1.75;;
21636;SDS011;10980;49.596;6.142;2023-09-18T19:49:33;5.60;;;2.05;;
21636;SDS011;10980;49.596;6.142;2023-09-18T19:52:55;3.13;;;1.42;;
21636;SDS011;10980;49.596;6.142;2023-09-18T19:56:17;4.28;;;1.30;;
21636;SDS011;10980;49.596;6.142;2023-09-18T19:59:39;2.80;;;1.50;;
21636;SDS011;10980;49.596;6.142;2023-09-18T20:03:02;2.80;;;1.33;;
21636;SDS011;10980;49.596;6.142;2023-09-18T20:06:24;3.85;;;1.58;;
21636;SDS011;10980;49.596;6.142;2023-09-18T20:09:51;5.40;;;1.40;;
21636;SDS011;10980;49.596;6.142;2023-09-18T20:13:13;4.57;;;1.75;;
21636;SDS011;10980;49.596;6.142;2023-09-18T20:16:34;3.63;;;1.45;;
21636;SDS011;10980;49.596;6.142;2023-09-18T20:19:57;6.47;;;2.08;;
21636;SDS011;10980;49.596;6.142;2023-09-18T20:23:19;5.35;;;1.38;;
21636;SDS011;10980;49.596;6.142;2023-09-18T20:26:40;3.53;;;1.35;;
21636;SDS011;10980;49.596;6.142;2023-09-18T20:30:08;6.50;;;1.58;;
21636;SDS011;10980;49.596;6.142;2023-09-18T20:33:33;3.58;;;1.30;;